Time;durP1;ratioP1;P1;durP2;ratioP2;P2;SDS_P1;SDS_P2;PMS_P1;PMS_P2;Temp;Humidity;BMP_temperature;BMP_pressure;BME280_temperature;BME280_humidity;BME280_pressure;Samples;Min_cycle;Max_cycle;Signal;HPM_P1;HPM_P2
2024/01/21 00:00:42;;;;;;;257.77;119.73;;;;;;;-1.60;100.00;101641.59;4928080;29;20315;-77
2024/01/21 00:03:08;;;;;;;217.83;101.17;;;;;;;-1.58;100.00;101638.34;4911195;29;20855;-77
2024/01/21 00:05:33;;;;;;;212.03;99.00;;;;;;;-1.61;100.00;101630.56;4920043;29;20184;-76
2024/01/21 00:07:59;;;;;;;216.27;96.97;;;;;;;-1.61;100.00;101617.88;4909142;29;20733;-77
2024/01/21 00:10:24;;;;;;;228.37;99.83;;;;;;;-1.58;100.00;101619.72;4926740;29;20192;-78
2024/01/21 00:12:49;;;;;;;222.63;98.43;;;;;;;-1.54;100.00;101621.69;4925902;29;20193;-77
2024/01/21 00:15:15;;;;;;;222.13;102.10;;;;;;;-1.52;100.00;101615.03;4927506;29;20271;-76
2024/01/21 00:17:40;;;;;;;220.67;103.03;;;;;;;-1.49;100.00;101620.28;4926575;29;20710;-77
2024/01/21 00:20:06;;;;;;;237.60;108.23;;;;;;;-1.49;100.00;101617.75;4929087;29;20203;-77
2024/01/21 00:22:31;;;;;;;239.23;105.30;;;;;;;-1.46;100.00;101619.63;4929130;29;20762;-77
2024/01/21 00:24:57;;;;;;;200.50;92.23;;;;;;;-1.47;100.00;101612.78;4924565;29;20272;-76
2024/01/21 00:27:22;;;;;;;192.00;82.43;;;;;;;-1.52;100.00;101604.00;4910056;29;20849;-77
2024/01/21 00:29:47;;;;;;;180.30;83.83;;;;;;;-1.58;100.00;101601.94;4926946;29;20191;-77
2024/01/21 00:32:13;;;;;;;181.13;79.10;;;;;;;-1.59;100.00;101600.19;4925159;29;20235;-77
2024/01/21 00:34:38;;;;;;;170.23;76.90;;;;;;;-1.62;100.00;101589.84;4919968;29;20258;-78
2024/01/21 00:37:03;;;;;;;163.73;74.13;;;;;;;-1.65;100.00;101580.38;4910071;29;20322;-77
2024/01/21 00:39:29;;;;;;;171.07;74.33;;;;;;;-1.67;100.00;101571.78;4926876;29;20799;-77
2024/01/21 00:41:55;;;;;;;170.80;74.77;;;;;;;-1.71;100.00;101569.84;4926226;29;20195;-77
2024/01/21 00:44:20;;;;;;;157.63;75.30;;;;;;;-1.67;100.00;101563.31;4912001;29;20200;-77
2024/01/21 00:46:47;;;;;;;155.33;70.17;;;;;;;-1.67;100.00;101571.78;4923461;29;20224;-76
2024/01/21 00:49:13;;;;;;;152.73;72.20;;;;;;;-1.66;100.00;101577.78;4923918;29;20284;-76
2024/01/21 00:51:38;;;;;;;153.77;70.50;;;;;;;-1.69;100.00;101584.41;4925813;29;20277;-77
2024/01/21 00:54:03;;;;;;;151.90;70.10;;;;;;;-1.76;100.00;101582.25;4909319;29;20282;-77
2024/01/21 00:56:28;;;;;;;151.90;68.97;;;;;;;-1.77;100.00;101584.72;4919084;29;20607;-76
2024/01/21 00:58:54;;;;;;;156.40;71.30;;;;;;;-1.82;100.00;101575.91;4908607;29;20199;-78
2024/01/21 01:01:19;;;;;;;152.63;68.53;;;;;;;-1.92;100.00;101567.75;4912132;29;20206;-77
2024/01/21 01:03:45;;;;;;;149.47;66.07;;;;;;;-1.98;100.00;101561.41;4915386;29;20188;-77
2024/01/21 01:06:10;;;;;;;139.40;65.47;;;;;;;-1.96;100.00;101554.75;4910505;29;20266;-77
2024/01/21 01:08:36;;;;;;;143.07;64.27;;;;;;;-1.97;100.00;101545.41;4926598;29;20299;-77
2024/01/21 01:11:02;;;;;;;142.90;63.70;;;;;;;-1.99;100.00;101550.38;4925910;29;20295;-77
2024/01/21 01:13:27;;;;;;;140.50;66.37;;;;;;;-2.00;100.00;101546.97;4908236;29;20272;-78
2024/01/21 01:15:52;;;;;;;156.70;65.83;;;;;;;-1.95;100.00;101547.25;4922458;29;20226;-77
2024/01/21 01:18:18;;;;;;;147.63;64.00;;;;;;;-1.98;100.00;101536.91;4925131;29;20211;-77
2024/01/21 01:20:43;;;;;;;135.90;62.90;;;;;;;-2.05;100.00;101533.13;4927618;29;20777;-77
2024/01/21 01:23:09;;;;;;;130.70;62.53;;;;;;;-2.01;100.00;101541.78;4925164;29;20263;-77
2024/01/21 01:25:34;;;;;;;137.47;60.93;;;;;;;-2.01;100.00;101541.78;4926789;29;20196;-77
2024/01/21 01:27:59;;;;;;;128.07;59.20;;;;;;;-2.01;100.00;101545.22;4927219;29;20242;-78
2024/01/21 01:30:25;;;;;;;119.03;55.80;;;;;;;-2.07;100.00;101546.50;4923905;29;20299;-78
2024/01/21 01:32:50;;;;;;;114.07;54.63;;;;;;;-2.13;100.00;101548.63;4909684;29;20278;-77
2024/01/21 01:35:16;;;;;;;131.07;58.10;;;;;;;-2.22;100.00;101547.28;4926596;29;20583;-77
2024/01/21 01:37:41;;;;;;;113.20;55.90;;;;;;;-2.26;100.00;101547.88;4924114;29;20215;-78
2024/01/21 01:40:07;;;;;;;123.30;58.03;;;;;;;-2.30;100.00;101549.34;4927501;29;20191;-77
2024/01/21 01:42:33;;;;;;;130.53;57.00;;;;;;;-2.34;100.00;101551.56;4909137;29;20196;-78
2024/01/21 01:44:59;;;;;;;124.77;58.20;;;;;;;-2.42;100.00;101551.06;4908039;29;20207;-78
2024/01/21 01:47:25;;;;;;;133.70;58.53;;;;;;;-2.45;100.00;101549.22;4927651;29;20709;-76
2024/01/21 01:49:51;;;;;;;128.33;58.57;;;;;;;-2.40;100.00;101543.56;4912017;29;20204;-77
2024/01/21 01:52:17;;;;;;;130.37;59.93;;;;;;;-2.35;100.00;101532.94;4931751;29;20232;-77
2024/01/21 01:54:45;;;;;;;130.73;59.80;;;;;;;-2.36;100.00;101536.25;4929282;29;20333;-77
2024/01/21 01:57:11;;;;;;;121.90;56.57;;;;;;;-2.37;100.00;101533.63;4912578;29;20242;-77
2024/01/21 01:59:37;;;;;;;124.27;57.80;;;;;;;-2.36;100.00;101536.25;4931516;29;20198;-75
2024/01/21 02:02:03;;;;;;;128.67;59.73;;;;;;;-2.36;100.00;101536.25;4929729;29;20449;-77
2024/01/21 02:04:28;;;;;;;131.83;60.13;;;;;;;-2.33;100.00;101533.03;4926133;29;20221;-77
2024/01/21 02:06:53;;;;;;;127.10;60.77;;;;;;;-2.32;100.00;101534.78;4912090;29;20243;-76
2024/01/21 02:09:19;;;;;;;132.30;58.83;;;;;;;-2.30;100.00;101538.28;4929277;29;20196;-77
2024/01/21 02:11:44;;;;;;;129.97;58.83;;;;;;;-2.31;100.00;101529.81;4925166;29;20294;-78
2024/01/21 02:14:12;;;;;;;125.33;58.07;;;;;;;-2.32;100.00;101532.25;4928279;29;20198;-77
2024/01/21 02:16:38;;;;;;;125.77;56.27;;;;;;;-2.31;100.00;101529.81;4927459;29;20643;-77
2024/01/21 02:19:10;;;;;;;127.47;58.80;;;;;;;-2.35;100.00;101534.63;4928637;29;20283;-76
2024/01/21 02:21:35;;;;;;;132.97;58.23;;;;;;;-2.39;100.00;101528.44;4926324;29;20196;-77
2024/01/21 02:24:02;;;;;;;116.83;55.07;;;;;;;-2.43;100.00;101530.69;4913187;29;20243;-76
2024/01/21 02:26:27;;;;;;;113.40;52.77;;;;;;;-2.51;100.00;101532.72;4926160;29;20836;-76
2024/01/21 02:28:52;;;;;;;116.43;53.57;;;;;;;-2.56;100.00;101540.06;4931237;29;20288;-76
2024/01/21 02:31:18;;;;;;;118.13;54.40;;;;;;;-2.56;100.00;101537.50;4931663;29;20187;-77
2024/01/21 02:33:43;;;;;;;123.03;52.80;;;;;;;-2.63;100.00;101542.94;4928470;29;20837;-77
2024/01/21 02:36:09;;;;;;;124.63;53.73;;;;;;;-2.77;100.00;101537.00;4927732;29;20871;-76
2024/01/21 02:38:34;;;;;;;120.57;53.47;;;;;;;-2.81;100.00;101541.00;4928195;29;20199;-77
2024/01/21 02:40:59;;;;;;;116.37;53.17;;;;;;;-2.81;100.00;101535.94;4931170;29;20195;-77
2024/01/21 02:43:25;;;;;;;128.80;56.13;;;;;;;-2.80;100.00;101540.19;4910362;29;20199;-77
2024/01/21 02:45:50;;;;;;;124.90;58.40;;;;;;;-2.76;100.00;101539.63;4915723;29;20205;-77
2024/01/21 02:48:16;;;;;;;121.17;54.00;;;;;;;-2.70;100.00;101538.28;4928876;29;20195;-77
2024/01/21 02:50:41;;;;;;;122.87;55.83;;;;;;;-2.63;100.00;101537.88;4912894;29;20336;-77
2024/01/21 02:53:06;;;;;;;123.57;55.47;;;;;;;-2.62;100.00;101520.25;4933235;29;20188;-77
2024/01/21 02:55:32;;;;;;;116.17;54.73;;;;;;;-2.64;100.00;101523.44;4928829;29;20242;-77
2024/01/21 02:57:57;;;;;;;115.63;52.80;;;;;;;-2.68;100.00;101514.78;4926059;29;20200;-77
2024/01/21 03:00:22;;;;;;;118.83;56.73;;;;;;;-2.64;100.00;101523.44;4922066;29;20204;-77
2024/01/21 03:02:49;;;;;;;123.70;56.83;;;;;;;-2.64;100.00;101523.44;4928274;29;20251;-77
2024/01/21 03:05:15;;;;;;;125.77;52.80;;;;;;;-2.65;100.00;101535.25;4912397;29;20256;-77
2024/01/21 03:07:40;;;;;;;106.10;49.27;;;;;;;-2.65;100.00;101529.34;4924336;29;20297;-77
2024/01/21 03:10:06;;;;;;;104.87;48.83;;;;;;;-2.63;100.00;101521.03;4926040;29;20200;-77
2024/01/21 03:12:31;;;;;;;99.67;48.43;;;;;;;-2.61;100.00;101526.19;4928227;29;20191;-77
2024/01/21 03:14:56;;;;;;;105.80;51.27;;;;;;;-2.60;100.00;101525.41;4926288;29;20241;-78
2024/01/21 03:17:22;;;;;;;111.97;50.53;;;;;;;-2.60;100.00;101520.34;4922759;29;20367;-77
2024/01/21 03:19:47;;;;;;;114.13;52.33;;;;;;;-2.58;100.00;101518.78;4926443;29;20188;-76
2024/01/21 03:22:12;;;;;;;116.50;52.47;;;;;;;-2.59;100.00;101511.09;4925100;29;20210;-76
2024/01/21 03:24:38;;;;;;;117.67;52.73;;;;;;;-2.61;100.00;101508.44;4927298;29;20191;-77
2024/01/21 03:27:03;;;;;;;113.47;50.33;;;;;;;-2.68;100.00;101501.25;4907433;29;20208;-77
2024/01/21 03:29:28;;;;;;;105.33;50.20;;;;;;;-2.71;100.00;101506.13;4921431;29;20218;-76
2024/01/21 03:31:54;;;;;;;118.20;52.13;;;;;;;-2.72;100.00;101501.81;4926683;29;20822;-77
2024/01/21 03:34:19;;;;;;;115.27;51.83;;;;;;;-2.76;100.00;101499.09;4913399;29;20634;-78
2024/01/21 03:36:45;;;;;;;116.10;52.87;;;;;;;-2.76;100.00;101498.22;4927662;29;20211;-77
2024/01/21 03:39:10;;;;;;;115.73;54.27;;;;;;;-2.78;100.00;101493.03;4926456;29;20200;-77
2024/01/21 03:41:35;;;;;;;123.30;55.73;;;;;;;-2.78;100.00;101495.56;4924440;29;20199;-78
2024/01/21 03:44:01;;;;;;;128.70;56.70;;;;;;;-2.77;100.00;101494.78;4926585;29;20239;-77
2024/01/21 03:46:26;;;;;;;127.27;58.33;;;;;;;-2.76;100.00;101476.28;4929318;29;20234;-77
2024/01/21 03:48:51;;;;;;;123.43;56.37;;;;;;;-2.70;100.00;101475.78;4926152;29;20225;-78
2024/01/21 03:51:16;;;;;;;123.47;57.73;;;;;;;-2.74;100.00;101475.50;4927481;29;20192;-77
2024/01/21 03:53:42;;;;;;;125.60;55.20;;;;;;;-2.82;100.00;101472.47;4923472;29;20579;-77
2024/01/21 03:56:08;;;;;;;118.00;52.93;;;;;;;-2.86;100.00;101470.50;4926888;29;20211;-77
2024/01/21 03:58:34;;;;;;;132.03;56.90;;;;;;;-2.95;100.00;101478.41;4916673;29;20549;-77
2024/01/21 04:01:01;;;;;;;121.80;54.23;;;;;;;-2.98;100.00;101470.63;4922078;29;20191;-78
2024/01/21 04:03:26;;;;;;;117.93;53.73;;;;;;;-3.00;100.00;101464.56;4925044;29;20650;-77
2024/01/21 04:05:51;;;;;;;125.43;54.47;;;;;;;-3.09;100.00;101468.25;4927544;29;20220;-78
2024/01/21 04:08:17;;;;;;;121.17;53.30;;;;;;;-3.13;100.00;101463.78;4926071;29;20247;-77
2024/01/21 04:10:42;;;;;;;115.30;52.13;;;;;;;-3.12;100.00;101464.63;4908479;29;20243;-77
2024/01/21 04:13:08;;;;;;;124.50;54.50;;;;;;;-3.12;100.00;101475.66;4924660;29;20248;-78
2024/01/21 04:15:34;;;;;;;117.77;53.00;;;;;;;-3.05;100.00;101479.47;4912075;29;20271;-77
2024/01/21 04:18:00;;;;;;;123.47;55.60;;;;;;;-3.03;100.00;101475.38;4924063;29;20222;-78
2024/01/21 04:20:25;;;;;;;120.10;55.87;;;;;;;-2.94;100.00;101486.09;4924871;29;20199;-77
2024/01/21 04:22:50;;;;;;;127.03;53.77;;;;;;;-2.93;100.00;101489.50;4910887;29;20183;-77
2024/01/21 04:25:15;;;;;;;127.00;55.27;;;;;;;-2.85;100.00;101492.53;4925316;29;20206;-78
2024/01/21 04:27:41;;;;;;;118.70;53.37;;;;;;;-2.81;100.00;101497.03;4927342;29;20716;-78
2024/01/21 04:30:07;;;;;;;119.43;52.67;;;;;;;-2.78;100.00;101494.69;4910174;29;20191;-78
2024/01/21 04:32:32;;;;;;;121.07;54.53;;;;;;;-2.78;100.00;101510.78;4927913;29;20198;-77
2024/01/21 04:34:57;;;;;;;126.47;54.93;;;;;;;-2.80;100.00;101506.38;4907799;29;20686;-78
2024/01/21 04:37:23;;;;;;;120.10;54.83;;;;;;;-2.79;100.00;101510.69;4926883;29;20222;-77
2024/01/21 04:39:48;;;;;;;118.43;56.10;;;;;;;-2.80;100.00;101502.19;4907207;29;20196;-78
2024/01/21 04:42:13;;;;;;;123.70;54.63;;;;;;;-2.77;100.00;101493.94;4926949;29;20193;-78
2024/01/21 04:44:39;;;;;;;118.13;53.57;;;;;;;-2.76;100.00;101503.28;4921265;29;20184;-78
2024/01/21 04:47:04;;;;;;;115.80;52.43;;;;;;;-2.77;100.00;101507.47;4919749;29;20219;-78
2024/01/21 04:49:29;;;;;;;120.73;53.63;;;;;;;-2.74;100.00;101499.19;4909497;29;20666;-77
2024/01/21 04:51:55;;;;;;;112.57;51.27;;;;;;;-2.78;100.00;101505.69;4913910;29;20203;-77
2024/01/21 04:54:20;;;;;;;129.67;56.50;;;;;;;-2.85;100.00;101502.66;4910812;29;20307;-78
2024/01/21 04:56:45;;;;;;;119.27;54.47;;;;;;;-2.85;100.00;101516.22;4927087;29;20202;-78
2024/01/21 04:59:11;;;;;;;116.53;53.73;;;;;;;-2.87;100.00;101511.84;4905458;29;20274;-77
2024/01/21 05:01:36;;;;;;;112.53;52.53;;;;;;;-2.84;100.00;101518.00;4921570;29;20202;-78
2024/01/21 05:04:01;;;;;;;123.63;54.87;;;;;;;-2.84;100.00;101520.53;4926266;29;20195;-76
2024/01/21 05:06:27;;;;;;;122.30;53.83;;;;;;;-2.85;100.00;101512.81;4921772;29;20686;-77
2024/01/21 05:08:52;;;;;;;116.07;50.87;;;;;;;-2.83;100.00;101518.84;4925082;29;20195;-78
2024/01/21 05:11:17;;;;;;;111.20;51.37;;;;;;;-2.82;100.00;101506.31;4924778;29;20207;-77
2024/01/21 05:13:43;;;;;;;108.17;51.40;;;;;;;-2.78;100.00;101504.84;4924202;29;20187;-77
2024/01/21 05:16:08;;;;;;;112.63;51.50;;;;;;;-2.74;100.00;101503.38;4907917;29;20246;-77
2024/01/21 05:18:33;;;;;;;111.10;51.87;;;;;;;-2.76;100.00;101514.28;4907615;29;20858;-77
2024/01/21 05:20:59;;;;;;;107.10;51.03;;;;;;;-2.80;100.00;101509.78;4910339;29;20187;-77
2024/01/21 05:23:25;;;;;;;108.97;51.13;;;;;;;-2.82;100.00;101508.84;4921186;29;20188;-79
2024/01/21 05:25:52;;;;;;;112.23;52.00;;;;;;;-2.87;100.00;101494.13;4926831;29;20290;-77
2024/01/21 05:28:18;;;;;;;117.70;54.33;;;;;;;-2.88;100.00;101507.56;4926445;29;20659;-78
2024/01/21 05:30:43;;;;;;;104.10;50.27;;;;;;;-2.94;100.00;101502.94;4909958;29;20259;-77
2024/01/21 05:33:09;;;;;;;107.87;49.90;;;;;;;-2.97;100.00;101501.09;4913373;29;20741;-78
2024/01/21 05:35:34;;;;;;;101.93;48.73;;;;;;;-2.97;100.00;101497.69;4909126;29;20216;-78
2024/01/21 05:37:59;;;;;;;101.77;48.60;;;;;;;-2.99;100.00;101494.19;4908383;29;20564;-77
2024/01/21 05:40:25;;;;;;;94.00;46.27;;;;;;;-2.97;100.00;101490.09;4929819;29;20694;-78
2024/01/21 05:42:51;;;;;;;110.33;48.70;;;;;;;-3.00;100.00;101493.28;4926833;29;20199;-77
2024/01/21 05:45:16;;;;;;;98.60;47.50;;;;;;;-3.03;100.00;101485.53;4924925;29;20288;-78
2024/01/21 05:47:42;;;;;;;99.27;48.17;;;;;;;-3.07;100.00;101484.41;4924745;29;20331;-78
2024/01/21 05:50:07;;;;;;;103.00;48.73;;;;;;;-3.08;100.00;101484.31;4905829;29;20299;-78
2024/01/21 05:52:33;;;;;;;93.80;45.37;;;;;;;-3.12;100.00;101482.38;4926534;29;20211;-77
2024/01/21 05:54:58;;;;;;;91.40;46.60;;;;;;;-3.16;100.00;101472.81;4926465;29;20656;-77
2024/01/21 05:57:24;;;;;;;94.90;47.73;;;;;;;-3.18;100.00;101477.78;4924582;29;20211;-77
2024/01/21 05:59:49;;;;;;;93.43;46.00;;;;;;;-3.24;100.00;101472.28;4909526;29;20666;-77
2024/01/21 06:02:14;;;;;;;90.93;44.97;;;;;;;-3.30;100.00;101462.63;4929415;29;20673;-77
2024/01/21 06:04:40;;;;;;;96.03;45.30;;;;;;;-3.37;100.00;101461.34;4927038;29;20247;-77
2024/01/21 06:07:08;;;;;;;84.00;42.17;;;;;;;-3.42;100.00;101461.84;4914097;29;20215;-78
2024/01/21 06:09:34;;;;;;;89.80;44.30;;;;;;;-3.45;100.00;101459.09;4918841;29;20643;-77
2024/01/21 06:11:59;;;;;;;83.73;43.43;;;;;;;-3.49;100.00;101450.44;4924824;29;20218;-78
2024/01/21 06:14:25;;;;;;;96.97;47.37;;;;;;;-3.54;100.00;101454.28;4908374;29;20290;-77
2024/01/21 06:16:52;;;;;;;94.57;47.23;;;;;;;-3.62;100.00;101456.31;4925936;29;20255;-77
2024/01/21 06:19:17;;;;;;;89.97;45.43;;;;;;;-3.74;100.00;101460.53;4905930;29;20279;-78
2024/01/21 06:21:43;;;;;;;87.10;44.70;;;;;;;-3.90;100.00;101468.75;4927539;29;20274;-78
2024/01/21 06:24:10;;;;;;;98.00;46.37;;;;;;;-4.04;100.00;101475.38;4927539;29;20207;-78
2024/01/21 06:26:37;;;;;;;90.57;42.93;;;;;;;-4.22;100.00;101488.47;4929463;29;20315;-77
2024/01/21 06:29:03;;;;;;;90.87;45.50;;;;;;;-4.27;100.00;101492.34;4926386;29;20188;-78
2024/01/21 06:31:28;;;;;;;102.37;47.97;;;;;;;-4.31;100.00;101492.91;4924244;29;20200;-78
2024/01/21 06:33:54;;;;;;;105.80;47.90;;;;;;;-4.33;100.00;101491.91;4909549;29;20302;-78
2024/01/21 06:36:19;;;;;;;97.17;46.27;;;;;;;-4.42;100.00;101501.38;4911392;29;20335;-78
2024/01/21 06:38:44;;;;;;;105.00;47.83;;;;;;;-4.52;100.00;101499.81;4927350;29;20199;-78
2024/01/21 06:41:10;;;;;;;111.90;48.73;;;;;;;-4.55;100.00;101504.66;4912465;29;20682;-78
2024/01/21 06:43:35;;;;;;;113.27;49.53;;;;;;;-4.55;100.00;101509.72;4929923;29;20196;-78
2024/01/21 06:46:00;;;;;;;118.77;51.57;;;;;;;-4.53;100.00;101505.66;4916970;29;20262;-78
2024/01/21 06:48:26;;;;;;;108.20;49.20;;;;;;;-4.43;100.00;101513.09;4927928;29;20239;-77
2024/01/21 06:50:53;;;;;;;110.97;52.07;;;;;;;-4.32;100.00;101508.81;4928153;29;20187;-78
2024/01/21 06:53:18;;;;;;;111.83;52.50;;;;;;;-4.20;100.00;101512.22;4929931;29;20599;-77
2024/01/21 06:55:44;;;;;;;106.27;51.63;;;;;;;-4.10;100.00;101500.25;4931006;29;20234;-77
2024/01/21 06:58:09;;;;;;;104.53;49.20;;;;;;;-4.02;100.00;101501.66;4911897;29;20219;-78
2024/01/21 07:00:35;;;;;;;120.83;53.27;;;;;;;-3.96;100.00;101496.13;4910866;29;20664;-78
2024/01/21 07:03:00;;;;;;;119.70;53.43;;;;;;;-3.92;100.00;101490.53;4928567;29;20266;-77
2024/01/21 07:05:25;;;;;;;120.00;54.60;;;;;;;-3.89;100.00;101491.59;4930590;29;20853;-77
2024/01/21 07:07:51;;;;;;;121.43;54.27;;;;;;;-3.87;100.00;101494.25;4911723;29;20223;-77
2024/01/21 07:10:16;;;;;;;111.97;50.60;;;;;;;-3.83;100.00;101486.09;4908287;29;20202;-79
2024/01/21 07:12:42;;;;;;;117.83;50.33;;;;;;;-3.80;100.00;101500.63;4911543;29;20199;-79
2024/01/21 07:15:08;;;;;;;101.97;48.90;;;;;;;-3.74;100.00;101508.59;4930560;29;20307;-78
2024/01/21 07:17:33;;;;;;;106.33;48.33;;;;;;;-3.72;100.00;101512.13;4930468;29;20290;-78
2024/01/21 07:19:59;;;;;;;102.23;49.03;;;;;;;-3.70;100.00;101515.66;4911096;29;20592;-78
2024/01/21 07:22:25;;;;;;;108.83;49.80;;;;;;;-3.68;100.00;101522.56;4910048;29;20195;-77
2024/01/21 07:24:50;;;;;;;101.40;47.60;;;;;;;-3.64;100.00;101523.66;4921088;29;20853;-79
2024/01/21 07:27:16;;;;;;;97.80;45.63;;;;;;;-3.60;100.00;101532.34;4928086;29;20223;-78
2024/01/21 07:29:41;;;;;;;110.33;49.20;;;;;;;-3.57;100.00;101523.28;4926968;29;20207;-78
2024/01/21 07:32:07;;;;;;;106.37;47.30;;;;;;;-3.50;100.00;101518.66;4929565;29;20194;-78
2024/01/21 07:34:32;;;;;;;102.40;46.73;;;;;;;-3.49;100.00;101521.28;4927913;29;20192;-78
2024/01/21 07:36:57;;;;;;;103.03;47.63;;;;;;;-3.52;100.00;101519.44;4929311;29;20214;-78
2024/01/21 07:39:23;;;;;;;96.33;44.50;;;;;;;-3.46;100.00;101515.53;4929648;29;21032;-79
2024/01/21 07:41:48;;;;;;;99.43;47.37;;;;;;;-3.40;100.00;101519.38;4909425;29;20589;-78
2024/01/21 07:44:13;;;;;;;99.20;46.03;;;;;;;-3.33;100.00;101525.75;4937475;29;20646;-78
2024/01/21 07:46:39;;;;;;;94.37;46.50;;;;;;;-3.29;100.00;101521.75;4927236;29;20242;-78
2024/01/21 07:49:04;;;;;;;96.57;48.60;;;;;;;-3.26;100.00;101527.91;4926526;29;20191;-78
2024/01/21 07:51:29;;;;;;;103.07;52.73;;;;;;;-3.14;100.00;101530.38;4922168;29;20246;-78
2024/01/21 07:53:55;;;;;;;94.03;51.93;;;;;;;-3.09;100.00;101531.56;4925573;29;20554;-78
2024/01/21 07:56:20;;;;;;;105.93;57.27;;;;;;;-3.04;100.00;101526.81;4929798;29;20215;-78
2024/01/21 07:58:45;;;;;;;97.37;54.53;;;;;;;-3.00;100.00;101532.97;4930281;29;20206;-77
2024/01/21 08:01:11;;;;;;;95.07;49.73;;;;;;;-2.97;100.00;101528.97;4929391;29;20191;-77
2024/01/21 08:03:37;;;;;;;93.73;48.07;;;;;;;-2.94;100.00;101528.28;4930200;29;20203;-79
2024/01/21 08:06:04;;;;;;;89.83;46.90;;;;;;;-2.96;100.00;101530.72;4928224;29;20230;-78
2024/01/21 08:08:30;;;;;;;95.07;47.97;;;;;;;-2.86;100.00;101539.81;4928142;29;20199;-79
2024/01/21 08:10:55;;;;;;;93.43;48.27;;;;;;;-2.82;100.00;101551.91;4928919;29;20176;-78
2024/01/21 08:13:21;;;;;;;95.80;47.87;;;;;;;-2.79;100.00;101543.63;4926350;29;20262;-77
2024/01/21 08:15:46;;;;;;;106.60;50.43;;;;;;;-2.78;100.00;101545.38;4914518;29;20587;-78
2024/01/21 08:18:13;;;;;;;98.37;51.63;;;;;;;-2.79;100.00;101538.56;4915134;29;20210;-78
2024/01/21 08:20:38;;;;;;;102.43;55.33;;;;;;;-2.81;100.00;101543.53;4928867;29;20250;-77
2024/01/21 08:23:03;;;;;;;125.57;62.13;;;;;;;-2.82;100.00;101556.09;4920966;29;20260;-78
2024/01/21 08:25:29;;;;;;;108.37;55.93;;;;;;;-2.79;100.00;101571.50;4927783;29;20189;-78
2024/01/21 08:27:54;;;;;;;97.30;50.73;;;;;;;-2.78;100.00;101575.78;4913710;29;20180;-79
2024/01/21 08:30:19;;;;;;;97.17;47.93;;;;;;;-2.74;100.00;101564.19;4911594;29;20657;-79
2024/01/21 08:32:45;;;;;;;100.53;47.10;;;;;;;-2.67;100.00;101541.03;4905438;29;20192;-78
2024/01/21 08:35:10;;;;;;;97.20;49.30;;;;;;;-2.64;100.00;101538.66;4928057;29;20294;-78
2024/01/21 08:37:35;;;;;;;91.80;48.63;;;;;;;-2.58;100.00;101528.06;4927382;29;20210;-78
2024/01/21 08:40:01;;;;;;;92.20;47.77;;;;;;;-2.55;100.00;101526.59;4926889;29;20207;-78
2024/01/21 08:42:27;;;;;;;87.57;45.27;;;;;;;-2.50;100.00;101515.09;4927481;29;20267;-78
2024/01/21 08:44:52;;;;;;;86.07;44.43;;;;;;;-2.47;100.00;101530.50;4910172;29;20257;-76
2024/01/21 08:47:18;;;;;;;86.73;45.73;;;;;;;-2.45;100.00;101534.00;4910381;29;20212;-76
2024/01/21 08:49:43;;;;;;;86.13;45.57;;;;;;;-2.34;100.00;101521.13;4922022;29;20192;-76
2024/01/21 08:52:08;;;;;;;87.73;46.17;;;;;;;-2.29;100.00;101527.38;4912815;29;20195;-78
2024/01/21 08:54:34;;;;;;;87.93;45.33;;;;;;;-2.30;100.00;101523.09;4926686;29;20188;-76
2024/01/21 08:56:59;;;;;;;82.03;43.27;;;;;;;-2.28;100.00;101525.72;4926762;29;20289;-77
2024/01/21 08:59:24;;;;;;;96.00;50.67;;;;;;;-2.24;100.00;101531.09;4925649;29;20574;-76
2024/01/21 09:01:50;;;;;;;92.53;53.20;;;;;;;-2.17;100.00;101535.75;4925753;29;20552;-77
2024/01/21 09:04:15;;;;;;;79.80;45.20;;;;;;;-2.15;100.00;101546.88;4929637;29;20187;-78
2024/01/21 09:06:41;;;;;;;79.67;43.70;;;;;;;-2.13;100.00;101553.72;4912469;29;20705;-79
2024/01/21 09:09:11;;;;;;;81.13;44.93;;;;;;;-2.10;100.00;101533.63;4930663;29;20192;-77
2024/01/21 09:11:40;;;;;;;75.67;43.27;;;;;;;-2.07;100.00;101531.28;4927400;29;20217;-77
2024/01/21 09:14:06;;;;;;;83.47;46.33;;;;;;;-1.98;100.00;101538.59;4933678;29;20248;-76
2024/01/21 09:16:33;;;;;;;77.73;44.70;;;;;;;-1.97;100.00;101538.66;4927850;29;20643;-77
2024/01/21 09:18:58;;;;;;;78.60;44.90;;;;;;;-1.89;100.00;101546.75;4926173;29;20212;-77
2024/01/21 09:21:24;;;;;;;78.17;48.10;;;;;;;-1.79;100.00;101546.53;4925357;29;20266;-76
2024/01/21 09:23:49;;;;;;;78.00;48.83;;;;;;;-1.67;100.00;101555.72;4926265;29;20223;-76
2024/01/21 09:26:15;;;;;;;78.00;46.53;;;;;;;-1.55;100.00;101559.00;4928962;29;20209;-76
2024/01/21 09:28:43;;;;;;;71.50;46.90;;;;;;;-1.45;100.00;101558.75;4926836;29;20227;-76
2024/01/21 09:31:09;;;;;;;77.63;48.97;;;;;;;-1.34;100.00;101543.28;4923334;29;20224;-76
2024/01/21 09:33:34;;;;;;;73.87;48.57;;;;;;;-1.26;100.00;101514.13;4928840;29;20584;-76
2024/01/21 09:36:00;;;;;;;77.33;49.33;;;;;;;-1.22;100.00;101538.94;4927328;29;20224;-77
2024/01/21 09:38:25;;;;;;;64.63;42.57;;;;;;;-1.16;100.00;101534.22;4926584;29;20190;-76
2024/01/21 09:40:57;;;;;;;67.93;47.57;;;;;;;-1.09;100.00;101532.91;4928512;29;21112;-76
2024/01/21 09:43:23;;;;;;;70.60;52.53;;;;;;;-0.99;100.00;101544.47;4912597;29;20198;-77
2024/01/21 09:45:49;;;;;;;70.97;51.57;;;;;;;-0.92;100.00;101537.31;4931334;29;20196;-76
2024/01/21 09:48:15;;;;;;;75.40;51.00;;;;;;;-0.84;100.00;101525.03;4931524;29;20173;-77
2024/01/21 09:50:43;;;;;;;73.67;49.53;;;;;;;-0.77;100.00;101533.91;4929372;29;20245;-77
2024/01/21 09:53:08;;;;;;;69.70;47.40;;;;;;;-0.69;100.00;101525.06;4912080;29;20213;-76
2024/01/21 09:55:34;;;;;;;75.63;53.67;;;;;;;-0.63;100.00;101516.91;4927347;29;20257;-77
2024/01/21 09:58:05;;;;;;;75.13;51.87;;;;;;;-0.55;100.00;101533.44;4928454;29;20182;-77
2024/01/21 10:00:31;;;;;;;75.53;51.57;;;;;;;-0.49;100.00;101528.72;4931329;29;20931;-77
2024/01/21 10:02:56;;;;;;;70.93;49.27;;;;;;;-0.42;100.00;101539.22;4930038;29;20218;-77
2024/01/21 10:05:21;;;;;;;66.20;45.20;;;;;;;-0.39;100.00;101535.22;4911838;29;20171;-77
2024/01/21 10:07:47;;;;;;;67.47;47.07;;;;;;;-0.35;100.00;101528.63;4928340;29;20305;-77
2024/01/21 10:10:12;;;;;;;78.40;51.30;;;;;;;-0.34;100.00;101531.22;4932618;29;20558;-77
2024/01/21 10:12:38;;;;;;;67.57;48.00;;;;;;;-0.30;100.00;101519.53;4929138;29;20199;-76
2024/01/21 10:15:03;;;;;;;68.93;49.97;;;;;;;-0.24;100.00;101519.91;4931028;29;20278;-77
2024/01/21 10:17:29;;;;;;;66.63;49.40;;;;;;;-0.16;100.00;101513.56;4927292;29;20211;-77
2024/01/21 10:19:54;;;;;;;78.07;54.20;;;;;;;-0.06;100.00;101520.00;4928107;29;20559;-77
2024/01/21 10:22:22;;;;;;;75.80;52.20;;;;;;;-0.04;100.00;101513.34;4930469;29;20286;-77
2024/01/21 10:24:49;;;;;;;71.20;49.93;;;;;;;0.06;100.00;101531.69;4933422;29;20193;-77
2024/01/21 10:27:18;;;;;;;67.40;48.73;;;;;;;0.15;100.00;101544.88;4915003;29;20233;-76
2024/01/21 10:29:46;;;;;;;56.37;39.87;;;;;;;0.03;100.00;101602.78;4925204;29;20191;-76
2024/01/21 10:32:17;;;;;;;48.03;37.43;;;;;;;-0.03;100.00;101626.22;4913064;29;20839;-76
2024/01/21 10:34:49;;;;;;;48.73;34.83;;;;;;;-0.10;100.00;101640.28;4918132;29;20201;-76
2024/01/21 10:37:15;;;;;;;48.77;34.93;;;;;;;-0.18;100.00;101655.09;4917638;29;20218;-79
2024/01/21 10:39:44;;;;;;;55.53;38.90;;;;;;;-0.24;100.00;101671.69;4930829;29;20238;-75
2024/01/21 10:42:12;;;;;;;61.13;41.53;;;;;;;-0.18;100.00;101678.00;4922931;29;20219;-79
2024/01/21 10:44:38;;;;;;;67.67;45.80;;;;;;;-0.09;100.00;101694.56;4930901;29;20199;-76
2024/01/21 10:47:05;;;;;;;81.00;51.83;;;;;;;-0.04;100.00;101711.84;4928537;29;20585;-76
2024/01/21 10:49:32;;;;;;;75.23;50.47;;;;;;;0.01;100.00;101704.47;4913882;29;20913;-76